Time;durP1;ratioP1;P1;durP2;ratioP2;P2;SDS_P1;SDS_P2;PMS_P1;PMS_P2;Temp;Humidity;BMP_temperature;BMP_pressure;BME280_temperature;BME280_humidity;BME280_pressure;Samples;Min_cycle;Max_cycle;Signal;HPM_P1;HPM_P2
2021/10/29 00:00:59;;;;;;;70.80;42.92;;;;;;;2.55;100.00;99635.53;2079041;28;20219;-72
2021/10/29 00:02:02;;;;;;;66.80;42.05;;;;;;;2.55;100.00;99637.38;2079607;28;20311;-72
2021/10/29 00:03:04;;;;;;;72.15;42.08;;;;;;;2.54;100.00;99638.41;2080312;28;20662;-73
2021/10/29 00:04:08;;;;;;;84.05;45.78;;;;;;;2.52;100.00;99641.28;2080528;28;20230;-72
2021/10/29 00:05:11;;;;;;;72.85;42.80;;;;;;;2.48;100.00;99628.78;2079957;28;20310;-72
2021/10/29 00:06:16;;;;;;;76.15;44.15;;;;;;;2.50;100.00;99634.59;2079507;28;20245;-72
2021/10/29 00:07:19;;;;;;;72.30;42.70;;;;;;;2.44;100.00;99630.28;2079383;28;20231;-72
2021/10/29 00:08:22;;;;;;;71.43;43.42;;;;;;;2.44;100.00;99630.28;2080159;28;20223;-72
2021/10/29 00:09:24;;;;;;;82.00;48.47;;;;;;;2.44;100.00;99627.63;2079829;28;20223;-72
2021/10/29 00:10:28;;;;;;;74.40;45.20;;;;;;;2.42;100.00;99632.31;2078879;28;20237;-73
2021/10/29 00:11:32;;;;;;;69.57;43.05;;;;;;;2.42;100.00;99632.31;2079437;28;20234;-73
2021/10/29 00:12:35;;;;;;;68.45;42.20;;;;;;;2.41;100.00;99625.44;2078929;28;20243;-72
2021/10/29 00:13:40;;;;;;;73.40;43.78;;;;;;;2.37;100.00;99619.03;2087264;28;20226;-72
2021/10/29 00:14:43;;;;;;;74.68;45.05;;;;;;;2.39;100.00;99619.63;2078901;28;20372;-72
2021/10/29 00:15:55;;;;;;;74.75;46.13;;;;;;;2.35;100.00;99619.28;2080451;28;20289;-72
2021/10/29 00:16:56;;;;;;;75.35;44.35;;;;;;;2.35;100.00;99629.00;2081573;28;20255;-72
2021/10/29 00:18:00;;;;;;;73.43;41.88;;;;;;;2.33;100.00;99631.03;2080885;28;20251;-71
2021/10/29 00:19:02;;;;;;;75.45;44.72;;;;;;;2.32;100.00;99626.81;2081001;28;20257;-72
2021/10/29 00:20:07;;;;;;;71.47;44.63;;;;;;;2.26;100.00;99620.66;2082003;28;20238;-72
2021/10/29 00:21:10;;;;;;;73.10;45.88;;;;;;;2.26;100.00;99625.91;2083384;28;20226;-73
2021/10/29 00:22:13;;;;;;;71.25;44.40;;;;;;;2.27;100.00;99630.16;2080752;28;20285;-72
2021/10/29 00:23:15;;;;;;;75.55;45.08;;;;;;;2.24;100.00;99626.13;2080935;28;20249;-72
2021/10/29 00:24:19;;;;;;;66.78;43.58;;;;;;;2.25;100.00;99629.53;2073231;28;20289;-72
2021/10/29 00:25:22;;;;;;;73.57;44.35;;;;;;;2.24;100.00;99626.13;2072990;28;20718;-72
2021/10/29 00:26:26;;;;;;;68.00;41.63;;;;;;;2.26;100.00;99626.72;2080866;28;20227;-73
2021/10/29 00:27:28;;;;;;;68.53;42.13;;;;;;;2.24;100.00;99625.31;2080839;28;20231;-72
2021/10/29 00:28:32;;;;;;;68.35;43.75;;;;;;;2.15;100.00;99616.94;2081470;28;20670;-72
2021/10/29 00:29:36;;;;;;;74.32;45.67;;;;;;;2.22;100.00;99625.53;2081153;28;20230;-72
2021/10/29 00:30:38;;;;;;;71.70;43.67;;;;;;;2.23;100.00;99623.72;2080907;28;20717;-72
2021/10/29 00:31:41;;;;;;;65.97;42.58;;;;;;;2.21;100.00;99626.59;2080845;28;20297;-72
2021/10/29 00:32:45;;;;;;;78.97;44.45;;;;;;;2.17;100.00;99620.19;2079358;28;20281;-73
2021/10/29 00:33:49;;;;;;;74.75;43.20;;;;;;;2.19;100.00;99631.28;2072558;28;20231;-72
2021/10/29 00:34:52;;;;;;;73.90;42.30;;;;;;;2.17;100.00;99625.44;2081118;28;20693;-73
2021/10/29 00:35:56;;;;;;;71.32;41.85;;;;;;;2.14;100.00;99622.44;2084898;28;20707;-72
2021/10/29 00:36:58;;;;;;;66.50;41.45;;;;;;;2.14;100.00;99625.06;2077429;28;20235;-72
2021/10/29 00:38:00;;;;;;;71.72;44.88;;;;;;;2.11;100.00;99621.06;2072463;28;20224;-72
2021/10/29 00:39:02;;;;;;;73.35;45.17;;;;;;;2.07;100.00;99619.91;2088584;28;20218;-72
2021/10/29 00:40:08;;;;;;;77.97;45.33;;;;;;;2.08;100.00;99618.88;2082136;28;20285;-72
2021/10/29 00:41:12;;;;;;;73.93;47.13;;;;;;;2.06;100.00;99620.94;2080980;28;20679;-72
2021/10/29 00:42:14;;;;;;;73.75;45.10;;;;;;;2.05;100.00;99621.97;2081558;28;20223;-73
2021/10/29 00:43:17;;;;;;;70.90;44.95;;;;;;;2.04;100.00;99616.94;2080763;28;20219;-72
2021/10/29 00:44:22;;;;;;;80.22;47.17;;;;;;;2.02;100.00;99622.44;2080569;28;20222;-72
2021/10/29 00:45:27;;;;;;;68.40;43.92;;;;;;;2.04;100.00;99617.75;2072838;28;20231;-72
2021/10/29 00:46:30;;;;;;;77.15;46.08;;;;;;;2.04;100.00;99628.28;2081053;28;20226;-72
2021/10/29 00:47:34;;;;;;;87.00;50.35;;;;;;;2.02;100.00;99624.28;2081696;28;20219;-72
2021/10/29 00:48:37;;;;;;;82.45;47.47;;;;;;;1.98;100.00;99613.38;2088998;28;20230;-72
2021/10/29 00:49:41;;;;;;;68.82;43.95;;;;;;;1.99;100.00;99621.03;2079652;28;20216;-73
2021/10/29 00:50:45;;;;;;;69.35;44.03;;;;;;;1.98;100.00;99621.25;2084666;28;20290;-73
2021/10/29 00:51:47;;;;;;;76.75;43.40;;;;;;;1.95;100.00;99616.47;2081792;28;20580;-72
2021/10/29 00:52:50;;;;;;;74.18;46.28;;;;;;;1.94;100.00;99620.13;2081750;28;20570;-72
2021/10/29 00:53:53;;;;;;;74.60;46.47;;;;;;;1.91;100.00;99610.88;2080898;28;20288;-72
2021/10/29 00:54:57;;;;;;;76.15;44.72;;;;;;;1.92;100.00;99614.31;2088473;28;20756;-72
2021/10/29 00:56:00;;;;;;;71.47;42.80;;;;;;;1.91;100.00;99615.31;2088231;28;20222;-72
2021/10/29 00:57:04;;;;;;;76.78;45.15;;;;;;;1.89;100.00;99617.34;2088776;28;20249;-72
2021/10/29 00:58:06;;;;;;;75.07;45.42;;;;;;;1.87;100.00;99606.25;2089117;28;20637;-72
2021/10/29 00:59:09;;;;;;;71.88;44.60;;;;;;;1.87;100.00;99611.53;2089170;28;20223;-72
2021/10/29 01:00:12;;;;;;;71.55;44.42;;;;;;;1.84;100.00;99609.34;2080477;28;20227;-73
2021/10/29 01:01:19;;;;;;;75.22;44.53;;;;;;;1.82;100.00;99612.19;2080794;28;20223;-72
2021/10/29 01:02:22;;;;;;;79.93;47.63;;;;;;;1.82;100.00;99608.75;2081661;28;20227;-72
2021/10/29 01:03:26;;;;;;;77.32;46.13;;;;;;;1.80;100.00;99606.34;2080966;28;20273;-72
2021/10/29 01:04:27;;;;;;;79.63;47.22;;;;;;;1.80;100.00;99600.28;2088500;28;20736;-73
2021/10/29 01:05:31;;;;;;;85.38;47.20;;;;;;;1.78;100.00;99602.34;2089017;28;20223;-72
2021/10/29 01:06:34;;;;;;;70.00;45.72;;;;;;;1.72;100.00;99595.34;2080716;28;20269;-72
2021/10/29 01:07:38;;;;;;;79.15;46.03;;;;;;;1.73;100.00;99605.66;2080614;28;20686;-72
2021/10/29 01:08:41;;;;;;;78.13;46.33;;;;;;;1.73;100.00;99599.59;2083144;28;20230;-72
2021/10/29 01:09:46;;;;;;;75.88;44.20;;;;;;;1.72;100.00;99600.63;2084140;28;20223;-72
2021/10/29 01:10:47;;;;;;;79.40;47.17;;;;;;;1.70;100.00;99596.38;2082248;28;20219;-72
2021/10/29 01:11:49;;;;;;;69.35;44.42;;;;;;;1.67;100.00;99591.59;2080695;28;20227;-72
2021/10/29 01:12:51;;;;;;;72.35;46.28;;;;;;;1.65;100.00;99595.44;2080682;28;20224;-72
2021/10/29 01:13:55;;;;;;;78.03;47.47;;;;;;;1.62;100.00;99593.28;2088592;28;20233;-73
2021/10/29 01:14:59;;;;;;;76.90;44.70;;;;;;;1.61;100.00;99602.19;2081619;28;20246;-72
2021/10/29 01:16:02;;;;;;;73.05;45.30;;;;;;;1.60;100.00;99584.81;2081549;28;20231;-72
2021/10/29 01:17:07;;;;;;;83.53;47.38;;;;;;;1.58;100.00;99594.75;2080160;28;20551;-72
2021/10/29 01:18:11;;;;;;;78.22;47.75;;;;;;;1.57;100.00;99582.63;2088438;28;20230;-72
2021/10/29 01:19:13;;;;;;;75.80;46.45;;;;;;;1.54;100.00;99585.69;2089285;28;20222;-72
2021/10/29 01:20:19;;;;;;;74.73;47.50;;;;;;;1.54;100.00;99585.69;2088772;28;20272;-72
2021/10/29 01:21:22;;;;;;;78.65;47.60;;;;;;;1.51;100.00;99584.31;2094674;28;20547;-72
2021/10/29 01:22:25;;;;;;;77.00;48.30;;;;;;;1.51;100.00;99586.97;2096486;28;20594;-72
2021/10/29 01:23:29;;;;;;;85.55;48.45;;;;;;;1.47;100.00;99584.97;2088564;28;20241;-72
2021/10/29 01:24:33;;;;;;;89.45;49.00;;;;;;;1.45;100.00;99582.59;2089591;28;20272;-72
2021/10/29 01:25:35;;;;;;;84.25;50.97;;;;;;;1.43;100.00;99579.38;2089704;28;20275;-72
2021/10/29 01:26:38;;;;;;;86.13;50.25;;;;;;;1.41;100.00;99578.81;2089234;28;20223;-72
2021/10/29 01:27:39;;;;;;;87.38;49.90;;;;;;;1.39;100.00;99583.47;2088278;28;20218;-72
2021/10/29 01:28:43;;;;;;;89.25;49.95;;;;;;;1.38;100.00;99590.56;2080322;28;20285;-72
2021/10/29 01:29:47;;;;;;;83.90;49.55;;;;;;;1.37;100.00;99586.31;2088929;28;20227;-72
2021/10/29 01:30:50;;;;;;;76.57;47.33;;;;;;;1.37;100.00;99588.16;2088668;28;20317;-71
2021/10/29 01:31:53;;;;;;;84.93;47.50;;;;;;;1.36;100.00;99578.66;2088819;28;20226;-72
2021/10/29 01:32:55;;;;;;;82.03;47.22;;;;;;;1.34;100.00;99578.88;2088547;28;20222;-72
2021/10/29 01:33:56;;;;;;;80.65;46.33;;;;;;;1.35;100.00;99579.69;2080640;28;20567;-72
2021/10/29 01:35:00;;;;;;;73.88;45.03;;;;;;;1.33;100.00;99579.13;2088930;28;20230;-72
2021/10/29 01:36:05;;;;;;;77.28;47.10;;;;;;;1.33;100.00;99579.91;2089232;28;20222;-72
2021/10/29 01:37:10;;;;;;;75.93;47.30;;;;;;;1.33;100.00;99576.50;2089554;28;20231;-72
2021/10/29 01:38:16;;;;;;;78.80;47.97;;;;;;;1.32;100.00;99575.69;2088504;28;20226;-72
2021/10/29 01:39:19;;;;;;;80.88;46.85;;;;;;;1.32;100.00;99585.41;2080873;28;20223;-72
2021/10/29 01:40:23;;;;;;;78.85;47.38;;;;;;;1.30;100.00;99571.66;2079889;28;20755;-72
2021/10/29 01:41:24;;;;;;;88.80;50.97;;;;;;;1.29;100.00;99573.50;2088456;28;20233;-72
2021/10/29 01:42:27;;;;;;;92.27;50.33;;;;;;;1.30;100.00;99574.28;2096912;28;20237;-72
2021/10/29 01:43:30;;;;;;;80.07;49.38;;;;;;;1.29;100.00;99562.16;2096890;28;20440;-72
2021/10/29 01:44:35;;;;;;;77.47;46.70;;;;;;;1.26;100.00;99566.06;2089555;28;20226;-72
2021/10/29 01:45:38;;;;;;;75.60;48.10;;;;;;;1.27;100.00;99572.91;2096945;28;20694;-72
2021/10/29 01:46:43;;;;;;;79.43;47.67;;;;;;;1.27;100.00;99566.84;2088147;28;20226;-72
2021/10/29 01:47:45;;;;;;;76.47;48.35;;;;;;;1.27;100.00;99562.41;2080513;28;20635;-72
2021/10/29 01:48:50;;;;;;;89.30;52.20;;;;;;;1.26;100.00;99555.53;2088821;28;20305;-72
2021/10/29 01:49:55;;;;;;;101.90;54.42;;;;;;;1.26;100.00;99558.16;2089517;28;20227;-72
2021/10/29 01:50:58;;;;;;;89.63;52.05;;;;;;;1.27;100.00;99558.97;2080689;28;20689;-71
2021/10/29 01:52:04;;;;;;;88.57;50.58;;;;;;;1.26;100.00;99557.38;2080324;28;20310;-72
2021/10/29 01:53:07;;;;;;;91.40;53.63;;;;;;;1.25;100.00;99555.78;2072511;28;20228;-72
2021/10/29 01:54:11;;;;;;;83.82;50.30;;;;;;;1.23;100.00;99552.56;2079315;28;20315;-72
2021/10/29 01:55:12;;;;;;;98.97;54.67;;;;;;;1.22;100.00;99551.78;2081213;28;20231;-72
2021/10/29 01:56:16;;;;;;;106.07;58.63;;;;;;;1.19;100.00;99554.81;2087566;28;20231;-72
2021/10/29 01:57:20;;;;;;;99.30;56.67;;;;;;;1.22;100.00;99559.66;2088730;28;20257;-72
2021/10/29 01:58:25;;;;;;;98.20;54.13;;;;;;;1.20;100.00;99542.47;2078993;28;20261;-72
2021/10/29 01:59:28;;;;;;;96.43;53.80;;;;;;;1.18;100.00;99555.84;2080400;28;20776;-72
2021/10/29 02:00:32;;;;;;;90.25;51.00;;;;;;;1.20;100.00;99555.63;2080311;28;20688;-72
2021/10/29 02:01:33;;;;;;;96.93;56.25;;;;;;;1.18;100.00;99555.06;2072313;28;20290;-72
2021/10/29 02:02:35;;;;;;;87.00;51.60;;;;;;;1.16;100.00;99546.59;2080457;28;20227;-72
2021/10/29 02:03:38;;;;;;;101.25;57.97;;;;;;;1.15;100.00;99547.63;2088118;28;20245;-72
2021/10/29 02:04:43;;;;;;;85.05;49.88;;;;;;;1.13;100.00;99551.28;2080055;28;20226;-73
2021/10/29 02:05:46;;;;;;;87.80;49.58;;;;;;;1.13;100.00;99548.66;2081069;28;20227;-72
2021/10/29 02:06:51;;;;;;;85.70;50.35;;;;;;;1.11;100.00;99545.41;2087994;28;20219;-72
2021/10/29 02:07:55;;;;;;;90.78;51.55;;;;;;;1.10;100.00;99543.81;2088969;28;20322;-73
2021/10/29 02:08:58;;;;;;;80.47;48.55;;;;;;;1.10;100.00;99543.81;2088985;28;20237;-73
2021/10/29 02:10:00;;;;;;;76.93;47.47;;;;;;;1.09;100.00;99546.69;2088446;28;20226;-72
2021/10/29 02:11:04;;;;;;;85.30;49.63;;;;;;;1.05;100.00;99542.91;2088662;28;20219;-72
2021/10/29 02:12:07;;;;;;;78.97;49.25;;;;;;;1.06;100.00;99542.69;2088181;28;20248;-72
2021/10/29 02:13:10;;;;;;;86.10;49.00;;;;;;;1.02;100.00;99536.25;2088185;28;20688;-72
2021/10/29 02:14:12;;;;;;;78.95;49.25;;;;;;;1.02;100.00;99538.06;2089222;28;20223;-72
2021/10/29 02:15:15;;;;;;;83.75;48.47;;;;;;;1.01;100.00;99541.72;2088669;28;20232;-72
2021/10/29 02:16:16;;;;;;;78.63;47.67;;;;;;;0.98;100.00;99540.34;2096567;28;20217;-72
2021/10/29 02:17:19;;;;;;;80.43;48.97;;;;;;;0.96;100.00;99541.59;2096110;28;20309;-72
2021/10/29 02:18:22;;;;;;;85.95;49.22;;;;;;;0.97;100.00;99537.94;2088405;28;20233;-72
2021/10/29 02:19:26;;;;;;;86.85;49.78;;;;;;;0.95;100.00;99539.97;2080230;28;20277;-73
2021/10/29 02:20:29;;;;;;;92.35;51.20;;;;;;;0.94;100.00;99543.63;2072598;28;20287;-72
2021/10/29 02:21:34;;;;;;;79.70;47.25;;;;;;;0.92;100.00;99538.59;2072307;28;20701;-72
2021/10/29 02:22:35;;;;;;;80.32;48.53;;;;;;;0.92;100.00;99538.59;2079580;28;20700;-72
2021/10/29 02:23:39;;;;;;;83.63;50.40;;;;;;;0.91;100.00;99542.25;2071991;28;20695;-72
2021/10/29 02:24:42;;;;;;;87.35;50.97;;;;;;;0.90;100.00;99540.66;2079982;28;20227;-72
2021/10/29 02:25:46;;;;;;;76.80;47.25;;;;;;;0.89;100.00;99539.06;2080846;28;20573;-72
2021/10/29 02:26:50;;;;;;;86.72;51.83;;;;;;;0.89;100.00;99536.44;2081027;28;20242;-72
2021/10/29 02:27:55;;;;;;;85.90;45.83;;;;;;;0.87;100.00;99538.47;2081031;28;20236;-72
2021/10/29 02:28:57;;;;;;;88.68;50.50;;;;;;;0.87;100.00;99542.91;2080524;28;20227;-71
2021/10/29 02:29:59;;;;;;;85.72;48.75;;;;;;;0.84;100.00;99533.66;2079768;28;20686;-72
2021/10/29 02:31:00;;;;;;;79.65;49.60;;;;;;;0.83;100.00;99534.66;2079934;28;20226;-71
2021/10/29 02:32:04;;;;;;;90.93;46.47;;;;;;;0.85;100.00;99530.78;2080106;28;20243;-72
2021/10/29 02:33:06;;;;;;;78.15;47.50;;;;;;;0.83;100.00;99537.28;2080259;28;20307;-72
2021/10/29 02:34:11;;;;;;;86.88;50.88;;;;;;;0.80;100.00;99530.66;2080208;28;20300;-72
2021/10/29 02:35:14;;;;;;;88.85;50.60;;;;;;;0.79;100.00;99528.28;2080832;28;20215;-72
2021/10/29 02:36:19;;;;;;;80.32;46.28;;;;;;;0.81;100.00;99534.09;2079358;28;20270;-72
2021/10/29 02:37:23;;;;;;;78.07;48.05;;;;;;;0.78;100.00;99524.00;2072074;28;20232;-72
2021/10/29 02:38:27;;;;;;;82.65;50.05;;;;;;;0.78;100.00;99529.25;2078713;28;20247;-72
2021/10/29 02:39:32;;;;;;;82.28;47.15;;;;;;;0.78;100.00;99539.78;2088444;28;20276;-71
2021/10/29 02:40:36;;;;;;;83.90;48.22;;;;;;;0.76;100.00;99536.56;2087820;28;20308;-72
2021/10/29 02:41:40;;;;;;;89.22;50.45;;;;;;;0.74;100.00;99536.00;2087989;28;20230;-72
2021/10/29 02:42:45;;;;;;;79.25;48.40;;;;;;;0.75;100.00;99532.34;2088183;28;20272;-72
2021/10/29 02:43:47;;;;;;;81.22;49.53;;;;;;;0.74;100.00;99528.13;2088303;28;20249;-72
2021/10/29 02:44:49;;;;;;;78.80;48.20;;;;;;;0.73;100.00;99532.56;2088217;28;20305;-72
2021/10/29 02:45:51;;;;;;;78.25;47.30;;;;;;;0.72;100.00;99532.78;2088352;28;20532;-72
2021/10/29 02:46:55;;;;;;;77.63;46.72;;;;;;;0.70;100.00;99532.22;2088658;28;20309;-72
2021/10/29 02:47:59;;;;;;;78.43;47.35;;;;;;;0.68;100.00;99529.78;2088968;28;20335;-72
2021/10/29 02:49:02;;;;;;;80.30;47.97;;;;;;;0.68;100.00;99531.63;2088551;28;20223;-72
2021/10/29 02:50:06;;;;;;;78.32;45.40;;;;;;;0.66;100.00;99533.66;2095470;28;20229;-72
2021/10/29 02:51:10;;;;;;;80.38;46.42;;;;;;;0.66;100.00;99536.28;2087612;28;20218;-72
2021/10/29 02:52:12;;;;;;;89.57;50.03;;;;;;;0.64;100.00;99525.22;2079744;28;20239;-72
2021/10/29 02:53:16;;;;;;;82.33;48.10;;;;;;;0.59;100.00;99517.97;2087976;28;20234;-73
2021/10/29 02:54:20;;;;;;;80.38;46.67;;;;;;;0.61;100.00;99525.63;2080694;28;20246;-71
2021/10/29 02:55:24;;;;;;;84.30;48.95;;;;;;;0.58;100.00;99521.63;2088102;28;20291;-72
2021/10/29 02:56:28;;;;;;;78.03;48.38;;;;;;;0.56;100.00;99527.09;2088429;28;20230;-72
2021/10/29 02:57:32;;;;;;;76.25;47.95;;;;;;;0.54;100.00;99518.66;2087945;28;20223;-72
2021/10/29 02:58:34;;;;;;;86.55;48.10;;;;;;;0.52;100.00;99515.44;2079849;28;20685;-72
2021/10/29 02:59:35;;;;;;;86.45;48.40;;;;;;;0.53;100.00;99519.69;2079806;28;20701;-71
2021/10/29 03:00:39;;;;;;;83.17;46.67;;;;;;;0.53;100.00;99522.31;2088108;28;20601;-72
2021/10/29 03:01:43;;;;;;;82.10;46.25;;;;;;;0.52;100.00;99519.88;2087065;28;20237;-72
2021/10/29 03:02:47;;;;;;;80.15;46.22;;;;;;;0.50;100.00;99517.47;2087872;28;20218;-72
2021/10/29 03:03:50;;;;;;;92.82;48.10;;;;;;;0.50;100.00;99524.53;2088815;28;20215;-72
2021/10/29 03:04:54;;;;;;;80.47;48.45;;;;;;;0.47;100.00;99517.13;2081359;28;20340;-74
2021/10/29 03:05:56;;;;;;;80.07;48.03;;;;;;;0.45;100.00;99517.34;2084026;28;20223;-72
2021/10/29 03:06:59;;;;;;;92.60;51.78;;;;;;;0.44;100.00;99518.34;2087963;28;20234;-72
2021/10/29 03:08:04;;;;;;;82.55;48.00;;;;;;;0.44;100.00;99512.31;2080133;28;20583;-72
2021/10/29 03:09:07;;;;;;;77.43;46.03;;;;;;;0.41;100.00;99513.53;2079886;28;20310;-72
2021/10/29 03:10:17;;;;;;;76.25;45.78;;;;;;;0.41;100.00;99521.41;2088490;28;20695;-72
2021/10/29 03:11:25;;;;;;;83.00;50.83;;;;;;;0.39;100.00;99525.28;2088700;28;20571;-73
2021/10/29 03:12:29;;;;;;;81.60;49.13;;;;;;;0.37;100.00;99520.25;2087424;28;20280;-73
2021/10/29 03:13:31;;;;;;;74.45;47.47;;;;;;;0.38;100.00;99524.47;2088142;28;20222;-72
2021/10/29 03:14:38;;;;;;;79.28;47.22;;;;;;;0.38;100.00;99518.44;2088747;28;20673;-72
2021/10/29 03:15:47;;;;;;;81.93;47.30;;;;;;;0.36;100.00;99518.66;2088130;28;20227;-72
2021/10/29 03:16:53;;;;;;;87.95;47.85;;;;;;;0.36;100.00;99523.09;2088858;28;20272;-72
2021/10/29 03:18:01;;;;;;;91.57;54.05;;;;;;;0.36;100.00;99525.72;2086885;28;20234;-72
2021/10/29 03:19:07;;;;;;;86.85;49.13;;;;;;;0.38;100.00;99521.06;2087222;28;20272;-72
2021/10/29 03:20:11;;;;;;;85.05;48.00;;;;;;;0.38;100.00;99523.69;2095699;28;20230;-73
2021/10/29 03:21:13;;;;;;;78.93;46.67;;;;;;;0.40;100.00;99524.25;2088102;28;20226;-72
2021/10/29 03:22:17;;;;;;;80.90;46.00;;;;;;;0.37;100.00;99516.81;2088014;28;20757;-72
2021/10/29 03:23:25;;;;;;;79.95;45.90;;;;;;;0.35;100.00;99519.66;2088097;28;20253;-72
2021/10/29 03:24:32;;;;;;;81.95;46.55;;;;;;;0.32;100.00;99520.09;2086885;28;20230;-72
2021/10/29 03:25:39;;;;;;;78.85;46.53;;;;;;;0.32;100.00;99527.97;2080410;28;20223;-72
2021/10/29 03:26:43;;;;;;;79.25;46.08;;;;;;;0.28;100.00;99529.44;2079802;28;21343;-72
2021/10/29 03:27:46;;;;;;;89.82;48.60;;;;;;;0.27;100.00;99519.94;2079320;28;20222;-72
2021/10/29 03:28:47;;;;;;;81.38;47.55;;;;;;;0.24;100.00;99517.75;2079766;28;20701;-72
2021/10/29 03:29:59;;;;;;;88.88;48.17;;;;;;;0.22;100.00;99517.97;2087562;28;20223;-72
2021/10/29 03:31:05;;;;;;;80.22;46.28;;;;;;;0.25;100.00;99529.84;2080487;28;20227;-72
2021/10/29 03:32:10;;;;;;;77.50;46.40;;;;;;;0.21;100.00;99519.00;2087859;28;20696;-72
2021/10/29 03:33:17;;;;;;;73.18;45.38;;;;;;;0.21;100.00;99520.81;2086394;28;20296;-72
2021/10/29 03:34:20;;;;;;;73.30;44.88;;;;;;;0.22;100.00;99514.53;2087781;28;20218;-72
2021/10/29 03:35:23;;;;;;;77.20;44.10;;;;;;;0.20;100.00;99520.00;2087823;28;20649;-72
2021/10/29 03:36:32;;;;;;;75.28;45.65;;;;;;;0.20;100.00;99516.59;2087447;28;20634;-72
2021/10/29 03:38:00;;;;;;;72.68;44.50;;;;;;;0.16;100.00;99516.19;2095863;28;20627;-73
2021/10/29 03:39:06;;;;;;;83.32;45.95;;;;;;;0.14;100.00;99513.00;2092209;28;20221;-72
2021/10/29 03:40:17;;;;;;;79.97;45.08;;;;;;;0.13;100.00;99519.28;2087836;28;20234;-73
2021/10/29 03:41:22;;;;;;;80.88;45.33;;;;;;;0.12;100.00;99517.66;2072566;28;20246;-72
2021/10/29 03:42:30;;;;;;;84.70;47.38;;;;;;;0.10;100.00;99516.28;2079370;28;20680;-73
2021/10/29 03:43:44;;;;;;;76.78;44.17;;;;;;;0.10;100.00;99511.03;2079465;28;20603;-72
2021/10/29 03:44:52;;;;;;;76.25;44.58;;;;;;;0.03;100.00;99505.03;2073579;28;20307;-72
2021/10/29 03:46:04;;;;;;;79.10;44.97;;;;;;;0.05;100.00;99513.50;2086663;28;20250;-72
2021/10/29 03:47:10;;;;;;;75.18;44.92;;;;;;;0.03;100.00;99511.09;2078963;28;20226;-72
2021/10/29 03:48:18;;;;;;;77.28;44.88;;;;;;;0.04;100.00;99517.16;2073076;28;21693;-72
2021/10/29 03:49:25;;;;;;;74.78;43.45;;;;;;;0.01;100.00;99515.75;2080610;28;20223;-72
2021/10/29 03:50:31;;;;;;;81.38;47.35;;;;;;;0.01;100.00;99518.38;2079224;28;20262;-73
2021/10/29 03:51:38;;;;;;;77.90;43.83;;;;;;;0.01;100.00;99517.59;2072035;28;20274;-72
2021/10/29 03:53:01;;;;;;;78.15;45.08;;;;;;;-0.02;100.00;99510.94;2079228;28;20590;-73
2021/10/29 03:54:06;;;;;;;78.60;44.67;;;;;;;-0.02;100.00;99516.16;2079733;28;20234;-72
2021/10/29 03:55:13;;;;;;;82.20;44.05;;;;;;;-0.06;100.00;99510.56;2079836;28;20227;-73
2021/10/29 03:56:24;;;;;;;77.57;44.03;;;;;;;-0.02;100.00;99510.94;2080252;28;20227;-72
2021/10/29 03:57:30;;;;;;;69.80;42.35;;;;;;;-0.05;100.00;99516.63;2080136;28;20235;-72
2021/10/29 03:58:34;;;;;;;79.10;43.88;;;;;;;-0.04;100.00;99510.34;2079697;28;20227;-72
2021/10/29 03:59:37;;;;;;;78.20;45.20;;;;;;;-0.05;100.00;99509.53;2079679;28;20335;-72
2021/10/29 04:00:41;;;;;;;76.65;44.45;;;;;;;-0.08;100.00;99512.63;2080036;28;20226;-73
2021/10/29 04:01:46;;;;;;;80.32;44.83;;;;;;;-0.09;100.00;99513.63;2080249;28;20227;-72
2021/10/29 04:02:47;;;;;;;72.80;42.97;;;;;;;-0.09;100.00;99513.63;2078989;28;20273;-72
2021/10/29 04:03:51;;;;;;;71.90;44.03;;;;;;;-0.11;100.00;99517.47;2079831;28;20313;-72
2021/10/29 04:04:53;;;;;;;79.65;45.58;;;;;;;-0.11;100.00;99515.66;2079201;28;20609;-74
2021/10/29 04:05:57;;;;;;;74.78;44.17;;;;;;;-0.11;100.00;99515.66;2070641;28;20224;-72
2021/10/29 04:07:00;;;;;;;78.90;46.17;;;;;;;-0.11;100.00;99515.66;2075809;28;20254;-72
2021/10/29 04:08:03;;;;;;;74.43;43.28;;;;;;;-0.12;100.00;99511.41;2083721;28;20229;-72
2021/10/29 04:09:07;;;;;;;72.20;42.72;;;;;;;-0.13;100.00;99507.19;2080274;28;20226;-72
2021/10/29 04:10:11;;;;;;;74.97;44.50;;;;;;;-0.12;100.00;99515.88;2095241;28;20304;-72
2021/10/29 04:11:20;;;;;;;68.47;42.13;;;;;;;-0.14;100.00;99512.66;2095735;28;20229;-72
2021/10/29 04:12:23;;;;;;;78.22;44.15;;;;;;;-0.14;100.00;99510.84;2087509;28;20210;-72
2021/10/29 04:13:33;;;;;;;72.90;44.50;;;;;;;-0.14;100.00;99510.84;2087290;28;20783;-73
2021/10/29 04:14:37;;;;;;;73.15;42.15;;;;;;;-0.15;100.00;99514.47;2087568;28;20223;-72
2021/10/29 04:15:40;;;;;;;71.13;42.90;;;;;;;-0.14;100.00;99513.47;2087579;28;20257;-73
2021/10/29 04:16:44;;;;;;;71.28;44.72;;;;;;;-0.16;100.00;99518.13;2080713;28;20662;-72
2021/10/29 04:17:45;;;;;;;76.88;43.30;;;;;;;-0.20;100.00;99498.56;2071391;28;20236;-72
2021/10/29 04:18:47;;;;;;;73.90;43.53;;;;;;;-0.19;100.00;99513.28;2086947;28;20229;-72
2021/10/29 04:19:51;;;;;;;69.85;42.50;;;;;;;-0.18;100.00;99509.66;2080774;28;20234;-73
2021/10/29 04:20:54;;;;;;;73.70;43.75;;;;;;;-0.21;100.00;99504.84;2086951;28;20277;-74
2021/10/29 04:22:00;;;;;;;77.70;45.63;;;;;;;-0.21;100.00;99510.09;2087636;28;20223;-72
2021/10/29 04:23:02;;;;;;;68.95;44.20;;;;;;;-0.22;100.00;99502.44;2088552;28;20226;-72
2021/10/29 04:24:05;;;;;;;73.90;44.47;;;;;;;-0.24;100.00;99500.03;2086930;28;20261;-71
2021/10/29 04:25:07;;;;;;;74.43;44.20;;;;;;;-0.22;100.00;99507.69;2073619;28;20701;-72
2021/10/29 04:26:10;;;;;;;72.97;43.47;;;;;;;-0.23;100.00;99504.25;2083299;28;20223;-72
2021/10/29 04:27:20;;;;;;;71.47;43.22;;;;;;;-0.24;100.00;99500.03;2080097;28;20227;-73
2021/10/29 04:28:24;;;;;;;70.28;42.25;;;;;;;-0.25;100.00;99503.69;2081818;28;20219;-73
2021/10/29 04:29:35;;;;;;;75.03;44.63;;;;;;;-0.25;100.00;99506.31;2078981;28;20238;-73
2021/10/29 04:30:42;;;;;;;73.72;44.25;;;;;;;-0.25;100.00;99497.63;2071722;28;20223;-73
2021/10/29 04:31:49;;;;;;;74.38;44.35;;;;;;;-0.30;100.00;99499.06;2086328;28;20568;-73
2021/10/29 04:32:52;;;;;;;77.35;44.50;;;;;;;-0.28;100.00;99506.72;2079389;28;20234;-75
2021/10/29 04:33:54;;;;;;;76.97;45.60;;;;;;;-0.33;100.00;99503.94;2073018;28;20296;-81
2021/10/29 04:34:58;;;;;;;76.70;46.60;;;;;;;-0.31;100.00;99507.16;2087657;28;20277;-78
2021/10/29 04:35:59;;;;;;;79.40;45.40;;;;;;;-0.34;100.00;99511.00;2087236;28;20226;-79
2021/10/29 04:37:03;;;;;;;84.82;47.63;;;;;;;-0.33;100.00;99506.56;2087587;28;20226;-75
2021/10/29 04:38:05;;;;;;;77.25;47.15;;;;;;;-0.33;100.00;99511.81;2089829;28;20227;-74
2021/10/29 04:39:13;;;;;;;77.20;45.13;;;;;;;-0.33;100.00;99506.56;2087620;28;20656;-74
2021/10/29 04:40:14;;;;;;;79.97;46.85;;;;;;;-0.33;100.00;99512.63;2079862;28;20254;-72
2021/10/29 04:41:18;;;;;;;81.82;45.70;;;;;;;-0.33;100.00;99506.56;2087618;28;20715;-76
2021/10/29 04:42:20;;;;;;;75.13;44.28;;;;;;;-0.34;100.00;99510.22;2079207;28;20231;-75
2021/10/29 04:43:22;;;;;;;79.63;46.92;;;;;;;-0.35;100.00;99509.41;2079430;28;20262;-75
2021/10/29 04:44:25;;;;;;;81.75;46.22;;;;;;;-0.34;100.00;99510.22;2079713;28;20670;-75
2021/10/29 04:45:30;;;;;;;78.32;45.72;;;;;;;-0.38;100.00;99493.28;2079272;28;20231;-75
2021/10/29 04:46:32;;;;;;;77.53;44.97;;;;;;;-0.35;100.00;99498.09;2071573;28;20594;-76
2021/10/29 04:47:37;;;;;;;77.30;45.38;;;;;;;-0.36;100.00;99504.34;2079440;28;20306;-75
2021/10/29 04:48:39;;;;;;;80.43;45.63;;;;;;;-0.37;100.00;99500.13;2078810;28;20234;-75
2021/10/29 04:49:42;;;;;;;79.07;45.63;;;;;;;-0.37;100.00;99494.88;2080128;28;20226;-75
2021/10/29 04:50:45;;;;;;;82.65;45.22;;;;;;;-0.38;100.00;99494.09;2080168;28;20223;-74
2021/10/29 04:51:47;;;;;;;72.93;45.65;;;;;;;-0.39;100.00;99502.97;2080175;28;20223;-75
2021/10/29 04:52:50;;;;;;;79.50;46.63;;;;;;;-0.40;100.00;99505.81;2078696;28;20228;-76
2021/10/29 04:53:53;;;;;;;79.35;46.55;;;;;;;-0.42;100.00;99505.22;2079390;28;20227;-75